Terminal Aerodrome Forecast
Issued by NWS

Home | Current Version | Previous Version | Text Only | Print | Product List | Glossary On
Versions: 1 2 3 4 5 6 7 8 9 10 11 12 13 14 15 16 17 18
000
FTUS43 KPAH 012326
TAFCGI
TAF
KCGI 012326Z 0200/0224 21008KT P6SM VCSH SCT050 BKN150
     FM020500 VRB04KT 4SM SHRA BR VCTS SCT025CB BKN090
      TEMPO 0206/0210 VRB15G25KT 2SM TSRA BKN015CB
     FM021000 VRB03KT 4SM BR VCSH SCT010 BKN025
     FM021600 21007KT P6SM BKN035=

USA.gov is the U.S. government's official web portal to all federal, state and local government web resources and services.